createdAt,value
2023-04-09T00:01:46.358Z,8.33
2023-04-09T00:04:14.124Z,8.37
2023-04-09T00:06:42.064Z,8.36
2023-04-09T00:09:09.748Z,8.35
2023-04-09T00:11:37.724Z,8.43
2023-04-09T00:14:05.488Z,8.34
2023-04-09T00:16:33.548Z,8.28
2023-04-09T00:19:01.304Z,8.28
2023-04-09T00:21:29.229Z,8.29
2023-04-09T00:23:56.852Z,8.41
2023-04-09T00:26:24.776Z,8.30
2023-04-09T00:28:52.673Z,8.16
2023-04-09T00:31:21.255Z,8.00
2023-04-09T00:33:49.014Z,7.96
2023-04-09T00:36:17.026Z,7.92
2023-04-09T00:38:45.431Z,7.91
2023-04-09T00:41:13.457Z,8.11
2023-04-09T00:43:41.088Z,8.04
2023-04-09T00:46:09.307Z,7.90
2023-04-09T00:48:37.079Z,7.83
2023-04-09T00:51:05.327Z,7.76
2023-04-09T00:53:33.101Z,7.70
2023-04-09T00:56:01.862Z,7.59
2023-04-09T00:58:29.621Z,7.49
2023-04-09T01:00:57.609Z,7.44
2023-04-09T01:03:25.571Z,7.79
2023-04-09T01:06:44.004Z,7.90
2023-04-09T01:09:43.681Z,7.82
2023-04-09T01:12:24.390Z,7.88
2023-04-09T01:14:59.335Z,7.74
2023-04-09T01:17:42.870Z,7.88
2023-04-09T01:20:19.587Z,7.91
2023-04-09T01:22:52.864Z,7.78
2023-04-09T01:25:21.507Z,7.79
2023-04-09T01:28:06.987Z,7.83
2023-04-09T01:30:35.376Z,7.82
2023-04-09T01:33:05.284Z,7.82
2023-04-09T01:35:33.119Z,7.80
2023-04-09T01:38:03.905Z,7.79
2023-04-09T01:40:31.686Z,7.82
2023-04-09T01:43:01.394Z,7.81
2023-04-09T01:45:29.267Z,8.04
2023-04-09T01:47:58.023Z,8.05
2023-04-09T01:50:26.044Z,8.02
2023-04-09T01:52:54.300Z,7.97
2023-04-09T01:55:21.921Z,7.86
2023-04-09T01:57:50.400Z,7.90
2023-04-09T02:00:18.294Z,7.89
2023-04-09T02:03:04.001Z,7.96
2023-04-09T02:05:37.541Z,7.96
2023-04-09T02:08:10.953Z,8.00
2023-04-09T02:10:40.510Z,7.98
2023-04-09T02:13:13.848Z,7.87
2023-04-09T02:15:43.628Z,7.86
2023-04-09T02:18:28.825Z,7.80
2023-04-09T02:20:57.433Z,7.66
2023-04-09T02:23:27.096Z,8.04
2023-04-09T02:25:55.326Z,7.90
2023-04-09T02:28:23.222Z,8.00
2023-04-09T02:30:52.786Z,8.12
2023-04-09T02:33:20.785Z,8.16
2023-04-09T02:35:48.711Z,8.05
2023-04-09T02:38:16.696Z,7.98
2023-04-09T02:40:44.385Z,8.03
2023-04-09T02:43:12.549Z,8.00
2023-04-09T02:45:40.305Z,7.93
2023-04-09T02:48:08.184Z,7.93
2023-04-09T02:50:36.696Z,7.86
2023-04-09T02:53:04.743Z,7.84
2023-04-09T02:55:32.616Z,7.78
2023-04-09T02:58:00.813Z,7.79
2023-04-09T03:00:28.522Z,7.84
2023-04-09T03:02:58.141Z,7.85
2023-04-09T03:05:25.995Z,7.76
2023-04-09T03:07:54.987Z,7.69
2023-04-09T03:10:22.858Z,7.63
2023-04-09T03:12:50.800Z,7.51
2023-04-09T03:15:18.557Z,7.41
2023-04-09T03:17:46.514Z,7.29
2023-04-09T03:20:14.810Z,7.27
2023-04-09T03:22:42.983Z,7.13
2023-04-09T03:25:28.384Z,6.96
2023-04-09T03:27:56.969Z,6.88
2023-04-09T03:30:36.509Z,6.68
2023-04-09T03:33:07.070Z,6.59
2023-04-09T03:35:43.370Z,6.52
2023-04-09T03:38:12.596Z,6.48
2023-04-09T03:40:42.737Z,6.56
2023-04-09T03:43:10.756Z,6.53
2023-04-09T03:45:41.529Z,6.38
2023-04-09T03:48:18.359Z,6.18
2023-04-09T03:50:46.657Z,5.99
2023-04-09T03:53:18.381Z,5.99
2023-04-09T03:55:46.878Z,6.08
2023-04-09T03:58:21.863Z,6.15
2023-04-09T04:00:49.692Z,6.08
2023-04-09T04:03:34.491Z,6.03
2023-04-09T04:06:16.738Z,6.09
2023-04-09T04:08:53.555Z,6.22
2023-04-09T04:11:26.709Z,6.20
2023-04-09T04:13:56.552Z,6.23
2023-04-09T04:16:25.385Z,6.27
2023-04-09T04:18:54.549Z,6.38
2023-04-09T04:21:22.752Z,6.44
2023-04-09T04:23:58.173Z,6.55
2023-04-09T04:26:28.713Z,6.61
2023-04-09T04:28:57.180Z,6.76
2023-04-09T04:31:47.779Z,6.92
2023-04-09T04:34:19.200Z,6.98
2023-04-09T04:36:52.073Z,7.12
2023-04-09T04:39:21.007Z,7.14
2023-04-09T04:41:57.262Z,7.24
2023-04-09T04:44:28.263Z,7.61
2023-04-09T04:47:08.582Z,7.76
2023-04-09T04:49:37.514Z,7.72
2023-04-09T04:52:07.922Z,7.60
2023-04-09T04:54:37.052Z,7.80
2023-04-09T04:57:04.853Z,7.84
2023-04-09T04:59:40.924Z,8.08
2023-04-09T05:02:11.841Z,8.20
2023-04-09T05:05:02.954Z,8.12
2023-04-09T05:07:37.473Z,8.07
2023-04-09T05:10:07.773Z,8.21
2023-04-09T05:12:39.558Z,8.26
2023-04-09T05:15:08.757Z,8.44
2023-04-09T05:17:38.332Z,8.57
2023-04-09T05:20:08.462Z,8.81
2023-04-09T05:22:52.775Z,8.92
2023-04-09T05:25:27.441Z,9.02
2023-04-09T05:27:55.984Z,9.22
2023-04-09T05:30:25.941Z,9.44
2023-04-09T05:32:54.406Z,9.60
2023-04-09T05:35:27.209Z,10.13
2023-04-09T05:37:55.057Z,10.51
2023-04-09T05:40:23.303Z,10.99
2023-04-09T05:42:52.110Z,11.14
2023-04-09T05:45:36.603Z,11.11
2023-04-09T05:48:04.511Z,11.02
2023-04-09T05:50:40.676Z,11.11
2023-04-09T05:53:15.886Z,11.18
2023-04-09T05:55:44.031Z,11.30
2023-04-09T05:58:12.657Z,11.26
2023-04-09T06:00:40.846Z,11.37
2023-04-09T06:03:10.538Z,11.39
2023-04-09T06:05:39.267Z,11.46
2023-04-09T06:08:08.518Z,11.74
2023-04-09T06:10:36.693Z,11.81
2023-04-09T06:13:04.350Z,11.91
2023-04-09T06:15:32.776Z,12.01
2023-04-09T06:18:00.491Z,12.16
2023-04-09T06:20:28.591Z,12.33
2023-04-09T06:22:56.276Z,12.42
2023-04-09T06:25:24.538Z,12.55
2023-04-09T06:27:52.224Z,12.71
2023-04-09T06:30:20.375Z,12.69
2023-04-09T06:32:54.495Z,12.95
2023-04-09T06:35:23.634Z,13.28
2023-04-09T06:37:51.433Z,13.62
2023-04-09T06:40:20.739Z,14.09
2023-04-09T06:42:50.397Z,14.91
2023-04-09T06:45:24.030Z,15.39
2023-04-09T06:47:51.692Z,15.63
2023-04-09T06:50:19.721Z,15.73
2023-04-09T06:52:47.370Z,16.03
2023-04-09T06:55:15.565Z,16.08
2023-04-09T06:57:43.362Z,15.82
2023-04-09T07:00:11.791Z,15.37
2023-04-09T07:02:39.941Z,15.12
2023-04-09T07:05:08.632Z,14.98
2023-04-09T07:07:36.306Z,14.88
2023-04-09T07:10:04.430Z,15.04
2023-04-09T07:12:34.616Z,15.39
2023-04-09T07:15:05.239Z,15.83
2023-04-09T07:17:34.015Z,15.92
2023-04-09T07:20:02.286Z,16.12
2023-04-09T07:22:30.761Z,15.84
2023-04-09T07:24:58.700Z,15.70
2023-04-09T07:27:27.894Z,16.17
2023-04-09T07:30:00.032Z,16.38
2023-04-09T07:32:28.610Z,16.32
2023-04-09T07:34:57.418Z,16.57
2023-04-09T07:37:25.638Z,16.82
2023-04-09T07:39:53.883Z,17.20
2023-04-09T07:42:21.948Z,17.83
2023-04-09T07:44:50.152Z,18.50
2023-04-09T07:47:18.014Z,19.25
2023-04-09T07:49:46.221Z,19.49
2023-04-09T07:52:13.824Z,19.49
2023-04-09T07:54:41.797Z,19.36
2023-04-09T07:57:09.443Z,19.39
2023-04-09T07:59:37.531Z,19.10
2023-04-09T08:02:05.588Z,18.81
2023-04-09T08:04:33.827Z,18.81
2023-04-09T08:07:01.485Z,18.82
2023-04-09T08:09:29.396Z,18.39
2023-04-09T08:11:57.356Z,18.07
2023-04-09T08:14:25.501Z,17.94
2023-04-09T08:16:53.390Z,17.57
2023-04-09T08:19:21.490Z,17.23
2023-04-09T08:21:49.688Z,17.27
2023-04-09T08:24:18.378Z,17.08
2023-04-09T08:26:46.329Z,17.10
2023-04-09T08:29:15.043Z,17.19
2023-04-09T08:31:43.229Z,17.30
2023-04-09T08:34:11.295Z,17.84
2023-04-09T08:36:39.513Z,18.50
2023-04-09T08:39:07.552Z,19.03
2023-04-09T08:41:38.254Z,18.75
2023-04-09T08:44:06.246Z,18.98
2023-04-09T08:46:36.953Z,19.23
2023-04-09T08:49:04.997Z,18.82
2023-04-09T08:51:32.753Z,17.82
2023-04-09T08:54:04.477Z,17.58
2023-04-09T08:56:33.040Z,17.42
2023-04-09T08:59:01.022Z,17.51
2023-04-09T09:01:31.049Z,16.91
2023-04-09T09:04:01.988Z,17.31
2023-04-09T09:06:33.227Z,17.63
2023-04-09T09:09:15.088Z,18.20
2023-04-09T09:11:43.724Z,19.60
2023-04-09T09:14:14.261Z,20.12
2023-04-09T09:16:55.548Z,20.30
2023-04-09T09:19:34.279Z,20.83
2023-04-09T09:22:08.054Z,20.40
2023-04-09T09:24:50.670Z,20.00
2023-04-09T09:27:37.155Z,20.09
2023-04-09T09:30:07.029Z,20.86
2023-04-09T09:32:35.653Z,20.56
2023-04-09T09:35:06.226Z,19.94
2023-04-09T09:37:34.763Z,19.59
2023-04-09T09:40:03.031Z,19.47
2023-04-09T09:42:31.858Z,19.21
2023-04-09T09:45:00.786Z,19.18
2023-04-09T09:47:29.753Z,19.06
2023-04-09T09:49:57.729Z,18.49
2023-04-09T09:52:28.358Z,18.68
2023-04-09T09:55:01.313Z,18.06
2023-04-09T09:57:31.249Z,18.37
2023-04-09T10:00:04.510Z,18.27
2023-04-09T10:02:47.830Z,18.01
2023-04-09T10:05:16.576Z,17.83
2023-04-09T10:07:45.044Z,18.04
2023-04-09T10:10:13.252Z,18.49
2023-04-09T10:12:41.993Z,20.09
2023-04-09T10:15:10.609Z,22.05
2023-04-09T10:17:39.022Z,21.77
2023-04-09T10:20:31.201Z,21.05
2023-04-09T10:23:03.301Z,20.44
2023-04-09T10:25:31.318Z,19.46
2023-04-09T10:28:03.439Z,19.31
2023-04-09T10:30:36.182Z,19.19
2023-04-09T10:33:22.073Z,18.84
2023-04-09T10:35:50.209Z,18.83
2023-04-09T10:38:32.782Z,18.24
2023-04-09T10:41:06.362Z,18.32
2023-04-09T10:43:36.545Z,18.58
2023-04-09T10:46:26.173Z,18.41
2023-04-09T10:49:24.370Z,18.79
2023-04-09T10:52:08.002Z,19.20
2023-04-09T10:54:46.408Z,19.56
2023-04-09T10:57:24.613Z,19.65
2023-04-09T10:59:54.786Z,19.53
2023-04-09T11:02:31.977Z,19.21
2023-04-09T11:05:24.846Z,19.03
2023-04-09T11:08:06.256Z,19.19
2023-04-09T11:10:34.549Z,19.20
2023-04-09T11:13:03.244Z,19.16
2023-04-09T11:15:34.565Z,19.24
2023-04-09T11:18:03.331Z,19.27
2023-04-09T11:20:33.410Z,19.31
2023-04-09T11:23:01.722Z,19.58
2023-04-09T11:25:32.304Z,19.50
2023-04-09T11:28:02.658Z,19.79
2023-04-09T11:30:31.343Z,19.83
2023-04-09T11:32:59.310Z,20.19
2023-04-09T11:35:27.410Z,19.95
2023-04-09T11:37:55.465Z,19.43
2023-04-09T11:40:25.760Z,18.72
2023-04-09T11:42:55.704Z,18.77
2023-04-09T11:45:28.057Z,18.43
2023-04-09T11:47:56.574Z,18.58
2023-04-09T11:50:25.047Z,18.72
2023-04-09T11:52:53.256Z,19.23
2023-04-09T11:55:24.852Z,19.52
2023-04-09T11:57:57.477Z,19.65
2023-04-09T12:00:25.507Z,19.56
2023-04-09T12:03:04.969Z,19.37
2023-04-09T12:05:37.113Z,19.21
2023-04-09T12:08:08.702Z,19.35
2023-04-09T12:10:38.596Z,19.21
2023-04-09T12:13:10.563Z,19.23
2023-04-09T12:15:46.226Z,18.99
2023-04-09T12:18:14.642Z,18.66
2023-04-09T12:20:44.293Z,18.57
2023-04-09T12:23:13.472Z,18.23
2023-04-09T12:25:43.066Z,18.03
2023-04-09T12:28:15.891Z,17.76
2023-04-09T12:30:43.972Z,17.44
2023-04-09T12:33:12.179Z,17.45
2023-04-09T12:35:40.042Z,17.19
2023-04-09T12:38:08.081Z,17.12
2023-04-09T12:40:37.024Z,17.05
2023-04-09T12:43:05.656Z,16.94
2023-04-09T12:45:33.864Z,16.44
2023-04-09T12:48:02.228Z,16.30
2023-04-09T12:50:30.077Z,16.12
2023-04-09T12:52:58.065Z,16.11
2023-04-09T12:55:25.807Z,15.99
2023-04-09T12:57:53.702Z,15.61
2023-04-09T13:00:21.541Z,15.63
2023-04-09T13:02:49.995Z,15.46
2023-04-09T13:05:17.777Z,15.20
2023-04-09T13:07:46.177Z,14.83
2023-04-09T13:10:13.847Z,14.55
2023-04-09T13:12:41.903Z,14.31
2023-04-09T13:15:09.873Z,13.94
2023-04-09T13:17:37.836Z,13.39
2023-04-09T13:20:06.044Z,13.20
2023-04-09T13:22:33.948Z,13.21
2023-04-09T13:25:01.805Z,13.16
2023-04-09T13:27:29.788Z,13.10
2023-04-09T13:29:57.529Z,13.34
2023-04-09T13:32:25.635Z,13.59
2023-04-09T13:34:55.292Z,13.87
2023-04-09T13:37:24.569Z,14.05
2023-04-09T13:39:52.362Z,14.30
2023-04-09T13:42:20.281Z,14.43
2023-04-09T13:44:47.966Z,14.48
2023-04-09T13:47:17.130Z,14.43
2023-04-09T13:49:45.361Z,14.44
2023-04-09T13:52:14.858Z,14.43
2023-04-09T13:54:42.623Z,14.35
2023-04-09T13:57:10.710Z,14.28
2023-04-09T13:59:38.405Z,14.04
2023-04-09T14:02:06.558Z,14.04
2023-04-09T14:04:34.523Z,14.03
2023-04-09T14:07:02.591Z,14.10
2023-04-09T14:09:30.635Z,14.07
2023-04-09T14:11:58.674Z,13.95
2023-04-09T14:14:26.721Z,14.05
2023-04-09T14:16:55.416Z,14.06
2023-04-09T14:19:23.702Z,14.20
2023-04-09T14:21:53.335Z,14.20
2023-04-09T14:24:23.176Z,14.36
2023-04-09T14:26:53.613Z,14.44
2023-04-09T14:29:22.135Z,14.49
2023-04-09T14:31:50.308Z,14.50
2023-04-09T14:34:18.158Z,14.65
2023-04-09T14:36:46.017Z,14.89
2023-04-09T14:39:13.854Z,14.84
2023-04-09T14:41:41.877Z,14.66
2023-04-09T14:44:09.597Z,14.53
2023-04-09T14:46:37.599Z,14.48
2023-04-09T14:49:05.337Z,14.49
2023-04-09T14:51:34.007Z,14.59
2023-04-09T14:54:01.839Z,14.62
2023-04-09T14:56:29.827Z,14.94
2023-04-09T14:58:57.702Z,14.98
2023-04-09T15:01:27.165Z,15.24
2023-04-09T15:03:55.837Z,15.44
2023-04-09T15:06:24.032Z,15.57
2023-04-09T15:08:52.071Z,15.70
2023-04-09T15:11:23.008Z,15.86
2023-04-09T15:13:51.527Z,16.08
2023-04-09T15:16:24.817Z,16.24
2023-04-09T15:18:56.206Z,16.44
2023-04-09T15:21:24.530Z,16.66
2023-04-09T15:23:53.114Z,16.73
2023-04-09T15:26:21.427Z,16.68
2023-04-09T15:28:49.418Z,16.88
2023-04-09T15:31:17.413Z,16.93
2023-04-09T15:33:45.754Z,16.62
2023-04-09T15:36:13.759Z,16.64
2023-04-09T15:38:41.483Z,16.49
2023-04-09T15:41:10.565Z,16.37
2023-04-09T15:43:38.286Z,16.25
2023-04-09T15:46:12.542Z,16.02
2023-04-09T15:48:40.494Z,15.83
2023-04-09T15:51:09.058Z,15.60
2023-04-09T15:53:37.009Z,15.43
2023-04-09T15:56:05.573Z,15.31
2023-04-09T15:58:33.382Z,15.33
2023-04-09T16:01:01.557Z,15.24
2023-04-09T16:03:29.400Z,15.25
2023-04-09T16:05:57.285Z,15.24
2023-04-09T16:08:26.242Z,15.26
2023-04-09T16:10:54.214Z,15.23
2023-04-09T16:13:21.813Z,15.21
2023-04-09T16:15:51.145Z,15.11
2023-04-09T16:18:18.914Z,15.09
2023-04-09T16:20:47.161Z,14.88
2023-04-09T16:23:14.813Z,14.81
2023-04-09T16:25:42.886Z,14.73
2023-04-09T16:28:10.712Z,14.56
2023-04-09T16:30:38.654Z,14.52
2023-04-09T16:33:08.747Z,14.30
2023-04-09T16:35:39.442Z,14.23
2023-04-09T16:38:07.853Z,14.15
2023-04-09T16:40:35.965Z,14.13
2023-04-09T16:43:03.887Z,14.03
2023-04-09T16:45:32.113Z,14.05
2023-04-09T16:47:59.939Z,13.90
2023-04-09T16:50:27.888Z,13.78
2023-04-09T16:52:55.611Z,13.73
2023-04-09T16:55:23.719Z,13.75
2023-04-09T16:57:51.395Z,13.70
2023-04-09T17:00:20.916Z,13.63
2023-04-09T17:02:49.054Z,13.54
2023-04-09T17:05:17.974Z,13.55
2023-04-09T17:07:45.845Z,13.55
2023-04-09T17:10:14.694Z,13.57
2023-04-09T17:12:42.820Z,13.67
2023-04-09T17:15:11.344Z,13.63
2023-04-09T17:17:39.027Z,13.59
2023-04-09T17:20:07.704Z,13.53
2023-04-09T17:22:35.675Z,13.41
2023-04-09T17:25:04.810Z,13.26
2023-04-09T17:27:32.520Z,13.35
2023-04-09T17:30:00.522Z,13.36
2023-04-09T17:32:28.247Z,13.28
2023-04-09T17:34:56.172Z,13.13
2023-04-09T17:37:24.279Z,13.20
2023-04-09T17:39:52.213Z,13.08
2023-04-09T17:42:21.920Z,12.99
2023-04-09T17:44:50.585Z,12.96
2023-04-09T17:47:18.773Z,12.88
2023-04-09T17:49:46.784Z,12.76
2023-04-09T17:52:14.864Z,12.72
2023-04-09T17:54:45.506Z,12.47
2023-04-09T17:57:14.035Z,12.38
2023-04-09T17:59:41.957Z,12.37
2023-04-09T18:02:09.846Z,12.15
2023-04-09T18:04:38.379Z,11.91
2023-04-09T18:07:06.387Z,11.87
2023-04-09T18:09:34.507Z,11.80
2023-04-09T18:12:02.832Z,11.75
2023-04-09T18:14:32.466Z,11.68
2023-04-09T18:17:01.123Z,11.70
2023-04-09T18:19:29.247Z,11.64
2023-04-09T18:21:56.951Z,11.62
2023-04-09T18:24:26.279Z,11.69
2023-04-09T18:26:53.876Z,11.59
2023-04-09T18:29:21.888Z,11.53
2023-04-09T18:31:49.481Z,11.46
2023-04-09T18:34:17.823Z,11.52
2023-04-09T18:36:45.562Z,11.52
2023-04-09T18:39:13.499Z,11.54
2023-04-09T18:41:42.407Z,11.54
2023-04-09T18:44:10.840Z,11.61
2023-04-09T18:46:38.625Z,11.59
2023-04-09T18:49:07.094Z,11.54
2023-04-09T18:51:34.713Z,11.76
2023-04-09T18:54:02.849Z,11.91
2023-04-09T18:56:30.442Z,11.78
2023-04-09T18:58:58.318Z,11.82
2023-04-09T19:01:26.042Z,11.73
2023-04-09T19:03:54.502Z,11.61
2023-04-09T19:06:23.382Z,11.50
2023-04-09T19:08:57.218Z,11.30
2023-04-09T19:11:26.077Z,11.31
2023-04-09T19:13:54.089Z,11.30
2023-04-09T19:16:22.082Z,11.26
2023-04-09T19:18:50.028Z,11.21
2023-04-09T19:21:18.618Z,11.08
2023-04-09T19:23:46.855Z,11.00
2023-04-09T19:26:14.800Z,10.87
2023-04-09T19:28:42.752Z,10.87
2023-04-09T19:31:12.721Z,10.78
2023-04-09T19:33:40.751Z,10.75
2023-04-09T19:36:08.417Z,10.73
2023-04-09T19:38:36.460Z,10.78
2023-04-09T19:41:04.389Z,10.71
2023-04-09T19:43:32.357Z,10.75
2023-04-09T19:46:04.288Z,10.67
2023-04-09T19:48:32.353Z,10.65
2023-04-09T19:50:59.924Z,10.59
2023-04-09T19:53:28.009Z,10.59
2023-04-09T19:55:55.671Z,10.58
2023-04-09T19:58:24.069Z,10.61
2023-04-09T20:00:51.746Z,10.76
2023-04-09T20:03:19.773Z,10.77
2023-04-09T20:05:47.866Z,10.81
2023-04-09T20:08:16.063Z,10.80
2023-04-09T20:10:46.447Z,10.72
2023-04-09T20:13:14.630Z,10.74
2023-04-09T20:15:42.924Z,10.78
2023-04-09T20:18:11.214Z,11.05
2023-04-09T20:20:38.826Z,11.28
2023-04-09T20:23:06.687Z,11.17
2023-04-09T20:25:36.604Z,11.30
2023-04-09T20:28:04.894Z,11.33
2023-04-09T20:30:32.650Z,11.16
2023-04-09T20:33:01.354Z,11.14
2023-04-09T20:35:29.224Z,10.95
2023-04-09T20:37:57.229Z,10.82
2023-04-09T20:40:25.121Z,10.66
2023-04-09T20:42:53.078Z,10.78
2023-04-09T20:45:20.796Z,10.61
2023-04-09T20:47:49.748Z,10.53
2023-04-09T20:50:19.392Z,10.35
2023-04-09T20:52:47.922Z,10.28
2023-04-09T20:55:15.596Z,10.22
2023-04-09T20:57:43.898Z,10.05
2023-04-09T21:00:12.167Z,9.89
2023-04-09T21:02:41.109Z,9.75
2023-04-09T21:05:21.768Z,9.72
2023-04-09T21:07:54.509Z,9.56
2023-04-09T21:10:22.166Z,9.46
2023-04-09T21:12:50.205Z,9.27
2023-04-09T21:15:17.928Z,9.09
2023-04-09T21:17:46.064Z,8.95
2023-04-09T21:20:15.182Z,8.91
2023-04-09T21:22:43.151Z,9.12
2023-04-09T21:25:12.646Z,8.92
2023-04-09T21:27:42.131Z,8.70
2023-04-09T21:30:10.031Z,8.54
2023-04-09T21:32:38.525Z,8.54
2023-04-09T21:35:06.657Z,8.59
2023-04-09T21:37:36.315Z,8.49
2023-04-09T21:40:04.779Z,8.41
2023-04-09T21:42:32.651Z,8.65
2023-04-09T21:45:01.415Z,8.43
2023-04-09T21:47:29.468Z,8.39
2023-04-09T21:49:57.655Z,8.24
2023-04-09T21:52:26.312Z,8.14
2023-04-09T21:54:54.073Z,8.10
2023-04-09T21:57:22.686Z,8.02
2023-04-09T21:59:50.397Z,7.90
2023-04-09T22:02:18.532Z,7.96
2023-04-09T22:04:46.610Z,8.00
2023-04-09T22:07:14.557Z,7.99
2023-04-09T22:09:42.243Z,7.87
2023-04-09T22:12:10.171Z,7.82
2023-04-09T22:14:39.168Z,7.76
2023-04-09T22:17:08.844Z,7.72
2023-04-09T22:19:36.479Z,7.68
2023-04-09T22:22:04.603Z,7.58
2023-04-09T22:24:32.297Z,7.48
2023-04-09T22:27:01.670Z,7.33
2023-04-09T22:29:29.698Z,7.23
2023-04-09T22:31:58.121Z,7.13
2023-04-09T22:34:26.309Z,7.26
2023-04-09T22:36:54.315Z,7.13
2023-04-09T22:39:21.966Z,7.09
2023-04-09T22:41:49.879Z,7.28
2023-04-09T22:44:17.610Z,7.17
2023-04-09T22:46:46.301Z,7.15
2023-04-09T22:49:14.256Z,7.09
2023-04-09T22:51:42.704Z,7.06
2023-04-09T22:54:10.493Z,6.96
2023-04-09T22:56:38.623Z,6.87
2023-04-09T22:59:06.309Z,6.87
2023-04-09T23:01:34.408Z,6.73
2023-04-09T23:04:02.165Z,6.70
2023-04-09T23:06:31.012Z,6.69
2023-04-09T23:09:00.027Z,6.62
2023-04-09T23:11:28.192Z,6.52
2023-04-09T23:13:56.045Z,6.39
2023-04-09T23:16:24.068Z,6.32
2023-04-09T23:18:51.889Z,6.28
2023-04-09T23:21:19.950Z,6.22
2023-04-09T23:23:47.646Z,6.13
2023-04-09T23:26:15.586Z,6.08
2023-04-09T23:28:43.210Z,6.07
2023-04-09T23:31:11.507Z,6.08
2023-04-09T23:33:39.237Z,6.02
2023-04-09T23:36:07.513Z,6.02
2023-04-09T23:38:35.380Z,5.93
2023-04-09T23:41:03.389Z,5.86
2023-04-09T23:43:31.215Z,5.84
2023-04-09T23:45:59.093Z,5.80
2023-04-09T23:48:26.793Z,5.72
2023-04-09T23:50:54.780Z,5.64
2023-04-09T23:53:22.379Z,5.66
2023-04-09T23:55:51.094Z,5.68
2023-04-09T23:58:18.963Z,5.62
